spotfav.com alexa rank chart, spotfav.com alexa rank daily changes

spotfav.com alexa rank chart, spotfav.com alexa rank daily changes

spotfav.com
Actual rank:
541 405

RANK HISTORY

Date Rank Diff
2017/01/23 541 405 +10 115
2017/01/22 531 290 +14 681
2017/01/21 516 609 +27 364
2017/01/20 489 245 -17 197
2017/01/19 506 442 +13 434
2017/01/18 493 008 +23 476
2017/01/17 469 532 -3 982
2017/01/16 473 514 +5 715
2017/01/15 467 799 +7 604
2017/01/14 460 195 +82
2017/01/13 460 113 +8 963
2017/01/12 451 150 +12 195
2017/01/11 438 955 -35
2017/01/10 438 990 +14 270
2017/01/09 424 720 -2 572
2017/01/08 427 292 -499
2017/01/07 427 791 +23 432
2017/01/06 404 359 +6 791
2017/01/05 397 568 +3 178
2017/01/04 394 390 +4 549
2017/01/03 389 841 -7 590
2017/01/02 397 431 -12 122
2017/01/01 409 553 -2 314
2016/12/31 411 867 +35 930
2016/12/30 375 937 -13 154
2016/12/29 389 091 +27 005
2016/12/28 362 086 +7 055
2016/12/27 355 031 +2 746
2016/12/26 352 285 +11 863
2016/12/25 340 422 +4 124
2016/12/24 336 298 -3 785
2016/12/23 340 083 +16 824
2016/12/22 323 259 +7 174
2016/12/21 316 085 -6 922
2016/12/20 323 007 +13 181
2016/12/19 309 826 -5 476
2016/12/18 315 302 -4 515
2016/12/17 319 817 +17 148
2016/12/16 302 669 +1 252
2016/12/15 301 417 +19 826
2016/12/14 281 591 +2 731
2016/12/13 278 860 +2 085
2016/12/12 276 775 -608
2016/12/11 277 383 +14 166
2016/12/10 263 217 -5 331
2016/12/09 268 548 +1 765
2016/12/08 266 783 +785
2016/12/07 265 998 +5 299
2016/12/06 260 699 +5 576
2016/12/05 255 123 -2 123
2016/12/04 257 246 +8 874
2016/12/02 248 372 -666
2016/12/01 249 038 -1 706
2016/11/30 250 744 +6 556
2016/11/29 244 188 +4 440
2016/11/28 239 748 +192
2016/11/27 239 556 +307
2016/11/26 239 249 +121
2016/11/25 239 128 +4 521
2016/11/24 234 607

WIDGET FOR YOUR SITE

DOMAINS WITH THE NEAREST RANK

Domain Rank
rmzhanxian.com 541 400
daylight-law.jp 541 401
cenynaswiecie.pl 541 402
mint.hr 541 403
aprettylifeinthesuburbs.com 541 404
spotfav.com 541 405
ghostinthe.info 541 406
leadspace.com 541 407
lacronicabadajoz.com 541 408
venta-usa.com 541 409
parsaqom.com 541 410

DOMAINS WITH THE NEAREST RANK BY TLD .com

Domain Rank
wapmarathi.com 541 395
evsjupiter.com 541 397
unifiedpatriots.com 541 399
rmzhanxian.com 541 400
aprettylifeinthesuburbs.com 541 404
spotfav.com 541 405
leadspace.com 541 407
lacronicabadajoz.com 541 408
venta-usa.com 541 409
parsaqom.com 541 410
mitashi.com 541 413